Aviation Digital Data Service (ADDS)

Output produced by METARs form (0425 UTC 01 March 2015)
found at http://aviationweather.gov/adds/metars/
 
KCRG 010023Z 0100/0124 01013G18KT 3SM -DZ BR OVC006 
     TEMPO 0101/0105 1/2SM -RA FG OVC003 
     FM010500 03006G12KT 1SM -DZ BR OVC001 
     TEMPO 0105/0108 1/4SM -RA FG 
     FM010800 06006G12KT 1/4SM -DZ FG OVC001 
     FM011400 06010KT 5SM BR VCSH OVC004 
     FM011800 07005KT 4SM BR OVC007